Terminal Aerodrome Forecast
Issued by NWS

Home | Current Version | Previous Version | Text Only | Print | Product List | Glossary On
Versions: 1 2 3 4 5 6 7 8 9 10 11 12 13 14 15 16
116
FTUS42 KTBW 211505 AAA
TAFRSW
TAF AMD
KRSW 211505Z 2115/2212 11012KT P6SM BKN025
     FM211600 11013KT P6SM SCT035
     FM211800 12013G19KT P6SM SCT050
     FM220200 08005KT P6SM FEW025
     FM220900 07004KT 5SM BR SKC=

USA.gov is the U.S. government's official web portal to all federal, state and local government web resources and services.